Terminal Aerodrome Forecast
Issued by NWS El Paso, TX

Home | Current Version | Previous Version | Text Only | Print | Product List | Glossary On
Versions: 1 2 3 4 5 6 7 8 9 10 11 12 13
000
FTUS44 KEPZ 212322
TAFELP
TAF
KELP 212322Z 2200/2224 32011KT P6SM FEW110 SCT250
     FM220300 08006KT P6SM BKN250
     FM221400 12010KT P6SM SCT100 BKN250=

USA.gov is the U.S. government's official web portal to all federal, state and local government web resources and services.